Time;durP1;ratioP1;P1;durP2;ratioP2;P2;SDS_P1;SDS_P2;PMS_P1;PMS_P2;Temp;Humidity;BMP_temperature;BMP_pressure;BME280_temperature;BME280_humidity;BME280_pressure;Samples;Min_cycle;Max_cycle;Signal;HPM_P1;HPM_P2
2021/08/27 00:00:19;;;;;;;4.17;3.30;;;;;;;13.95;100.00;97960.41;5073048;28;20235;-65
2021/08/27 00:02:45;;;;;;;5.57;3.13;;;;;;;13.97;100.00;97953.16;5075136;28;20216;-65
2021/08/27 00:05:12;;;;;;;4.53;3.33;;;;;;;14.00;100.00;97966.19;5075043;28;20215;-65
2021/08/27 00:07:38;;;;;;;4.77;2.97;;;;;;;14.11;100.00;97963.47;5074333;28;20236;-65
2021/08/27 00:10:06;;;;;;;3.77;2.97;;;;;;;14.14;100.00;97955.22;5074751;28;20214;-65
2021/08/27 00:12:35;;;;;;;5.23;3.30;;;;;;;14.21;100.00;97961.72;5074693;28;20219;-65
2021/08/27 00:15:02;;;;;;;5.73;3.43;;;;;;;14.21;100.00;97961.72;5074879;28;20217;-66
2021/08/27 00:17:30;;;;;;;5.07;3.03;;;;;;;14.22;100.00;97960.72;5074787;28;20581;-65
2021/08/27 00:19:57;;;;;;;5.47;3.00;;;;;;;14.21;100.00;97956.38;5074502;28;20281;-65
2021/08/27 00:22:24;;;;;;;4.33;3.27;;;;;;;14.20;100.00;97950.25;5074674;28;20266;-65
2021/08/27 00:24:50;;;;;;;5.50;3.53;;;;;;;14.21;100.00;97957.25;5074056;28;20223;-65
2021/08/27 00:27:17;;;;;;;4.40;2.80;;;;;;;14.24;100.00;97961.47;5073207;28;20216;-65
2021/08/27 00:29:45;;;;;;;4.70;2.83;;;;;;;14.28;100.00;97962.84;5074202;28;20205;-65
2021/08/27 00:32:11;;;;;;;6.17;3.20;;;;;;;14.31;100.00;97965.28;5074070;28;20211;-65
2021/08/27 00:34:38;;;;;;;4.37;3.50;;;;;;;14.30;100.00;97960.94;5074337;28;20243;-65
2021/08/27 00:37:05;;;;;;;4.73;3.03;;;;;;;14.31;100.00;97959.94;5074374;28;20217;-65
2021/08/27 00:39:31;;;;;;;4.50;3.53;;;;;;;14.26;100.00;97964.81;5073923;28;20217;-65
2021/08/27 00:41:58;;;;;;;4.37;3.37;;;;;;;14.27;100.00;97955.88;5073853;28;20216;-65
2021/08/27 00:44:25;;;;;;;4.97;2.77;;;;;;;14.27;100.00;97961.19;5074073;28;20220;-65
2021/08/27 00:46:53;;;;;;;5.30;3.17;;;;;;;14.24;100.00;97962.28;5074115;28;20213;-65
2021/08/27 00:49:20;;;;;;;4.17;2.80;;;;;;;14.26;100.00;97959.50;5074037;28;20209;-65
2021/08/27 00:51:46;;;;;;;5.10;3.67;;;;;;;14.27;100.00;97961.19;5072034;28;20212;-65
2021/08/27 00:54:13;;;;;;;4.30;3.00;;;;;;;14.30;100.00;97960.94;5073924;28;20216;-65
2021/08/27 00:56:40;;;;;;;4.83;2.87;;;;;;;14.30;100.00;97966.25;5074000;28;20318;-65
2021/08/27 00:59:06;;;;;;;4.00;3.17;;;;;;;14.32;100.00;97967.81;5073559;28;20214;-65
2021/08/27 01:01:33;;;;;;;4.57;3.00;;;;;;;14.32;100.00;97959.81;5062571;28;20237;-66
2021/08/27 01:04:01;;;;;;;3.83;3.30;;;;;;;14.35;100.00;97969.34;5068733;28;20213;-66
2021/08/27 01:06:36;;;;;;;4.43;3.23;;;;;;;14.36;100.00;97968.38;5057343;28;20225;-66
2021/08/27 01:09:04;;;;;;;5.77;3.37;;;;;;;14.32;100.00;97969.59;5065524;28;20240;-65
2021/08/27 01:11:36;;;;;;;3.97;3.20;;;;;;;14.31;100.00;97971.41;5065490;28;20670;-66
2021/08/27 01:14:05;;;;;;;5.03;3.10;;;;;;;14.35;100.00;97969.34;5073251;28;20213;-65
2021/08/27 01:16:36;;;;;;;5.10;3.17;;;;;;;14.30;100.00;97969.72;5073474;28;20225;-65
2021/08/27 01:19:27;;;;;;;5.00;3.80;;;;;;;14.32;100.00;97974.91;5070667;28;20694;-66
2021/08/27 01:22:08;;;;;;;4.27;3.20;;;;;;;14.27;100.00;97971.81;5073300;28;20234;-65
2021/08/27 01:24:36;;;;;;;4.77;3.10;;;;;;;14.22;100.00;97968.69;5073523;28;20208;-66
2021/08/27 01:27:05;;;;;;;5.60;3.60;;;;;;;14.24;100.00;97972.91;5073445;28;20214;-66
2021/08/27 01:29:43;;;;;;;6.03;3.20;;;;;;;14.22;100.00;97974.03;5073403;28;20205;-65
2021/08/27 01:32:11;;;;;;;6.60;3.20;;;;;;;14.22;100.00;97974.03;5073415;28;20216;-65
2021/08/27 01:34:42;;;;;;;5.30;3.53;;;;;;;14.20;100.00;97970.66;5073264;28;20237;-65
2021/08/27 01:37:11;;;;;;;5.43;3.63;;;;;;;14.19;100.00;97968.97;5073416;28;20250;-65
2021/08/27 01:39:41;;;;;;;5.83;3.57;;;;;;;14.20;100.00;97966.19;5073241;28;20208;-65
2021/08/27 01:42:10;;;;;;;5.33;3.30;;;;;;;14.18;100.00;97970.75;5073246;28;20223;-65
2021/08/27 01:44:38;;;;;;;3.90;3.50;;;;;;;14.16;100.00;97970.06;5071545;28;20212;-65
2021/08/27 01:47:07;;;;;;;4.80;3.60;;;;;;;14.25;100.00;97968.44;5073222;28;20214;-65
2021/08/27 01:49:34;;;;;;;6.17;3.60;;;;;;;14.22;100.00;97971.34;5073299;28;20211;-65
2021/08/27 01:52:06;;;;;;;5.90;3.37;;;;;;;14.13;100.00;97969.47;5073079;28;20220;-65
2021/08/27 01:54:33;;;;;;;6.90;3.67;;;;;;;13.97;100.00;97963.78;5072809;28;20673;-65
2021/08/27 01:57:01;;;;;;;8.30;3.97;;;;;;;13.83;100.00;97958.81;5073119;28;20570;-65
2021/08/27 01:59:31;;;;;;;4.87;3.50;;;;;;;13.67;100.00;97966.38;5073116;28;20220;-65
2021/08/27 02:01:58;;;;;;;4.70;3.63;;;;;;;13.60;100.00;97957.25;5073000;28;20237;-65
2021/08/27 02:04:26;;;;;;;6.13;4.00;;;;;;;13.54;100.00;97965.72;5072814;28;20207;-65
2021/08/27 02:06:53;;;;;;;4.67;3.67;;;;;;;13.46;100.00;97965.53;5072760;28;20220;-65
2021/08/27 02:09:21;;;;;;;6.83;4.40;;;;;;;13.46;100.00;97963.69;5071210;28;20207;-65
2021/08/27 02:11:49;;;;;;;5.43;3.67;;;;;;;13.50;100.00;97966.97;5072743;28;20689;-65
2021/08/27 02:14:16;;;;;;;7.33;3.90;;;;;;;13.50;100.00;97970.44;5073028;28;20218;-65
2021/08/27 02:16:43;;;;;;;6.03;4.13;;;;;;;13.53;100.00;97972.00;5072512;28;20217;-65
2021/08/27 02:19:10;;;;;;;6.40;4.00;;;;;;;13.53;100.00;97969.34;5072910;28;20216;-65
2021/08/27 02:21:41;;;;;;;5.33;3.77;;;;;;;13.54;100.00;97971.03;5072412;28;20713;-65
2021/08/27 02:24:13;;;;;;;5.20;4.10;;;;;;;13.51;100.00;97976.63;5072841;28;20216;-65
2021/08/27 02:26:44;;;;;;;8.63;3.87;;;;;;;13.56;100.00;97975.25;5072828;28;20572;-65
2021/08/27 02:29:11;;;;;;;5.80;3.87;;;;;;;13.59;100.00;97974.16;5073190;28;20237;-65
2021/08/27 02:31:40;;;;;;;7.13;4.27;;;;;;;13.60;100.00;97970.53;5076543;28;20213;-65
2021/08/27 02:34:07;;;;;;;4.37;3.90;;;;;;;13.62;100.00;97973.91;5076431;28;20242;-65
2021/08/27 02:36:34;;;;;;;5.20;3.80;;;;;;;13.59;100.00;97976.81;5074933;28;20567;-65
2021/08/27 02:39:01;;;;;;;4.60;3.80;;;;;;;13.66;100.00;97975.31;5076300;28;20215;-65
2021/08/27 02:41:27;;;;;;;4.20;3.70;;;;;;;13.61;100.00;97973.06;5076443;28;20231;-65
2021/08/27 02:43:55;;;;;;;4.47;3.90;;;;;;;13.60;100.00;97966.06;5076401;28;20213;-65
2021/08/27 02:46:22;;;;;;;4.77;3.63;;;;;;;13.62;100.00;97969.44;5076051;28;20701;-65
2021/08/27 02:48:48;;;;;;;7.00;3.93;;;;;;;13.67;100.00;97971.69;5076414;28;20211;-65
2021/08/27 02:51:18;;;;;;;6.17;3.97;;;;;;;13.66;100.00;97964.69;5076371;28;20210;-65
2021/08/27 02:53:50;;;;;;;4.67;3.57;;;;;;;13.68;100.00;97968.09;5076230;28;20214;-65
2021/08/27 02:56:22;;;;;;;5.77;3.60;;;;;;;13.66;100.00;97964.69;5076295;28;20214;-65
2021/08/27 02:58:51;;;;;;;5.30;3.80;;;;;;;13.70;100.00;97974.91;5076319;28;20211;-65
2021/08/27 03:01:24;;;;;;;5.87;3.87;;;;;;;13.68;100.00;97973.41;5074306;28;20258;-65
2021/08/27 03:04:02;;;;;;;6.13;3.73;;;;;;;13.71;100.00;97975.78;5076181;28;20208;-65
2021/08/27 03:06:35;;;;;;;7.17;4.33;;;;;;;13.58;100.00;97972.47;5075855;28;20208;-65
2021/08/27 03:09:08;;;;;;;5.97;3.83;;;;;;;13.49;100.00;97983.84;5075930;28;20224;-65
2021/08/27 03:11:40;;;;;;;6.13;3.67;;;;;;;13.45;100.00;97971.81;5076065;28;20261;-65
2021/08/27 03:14:11;;;;;;;5.33;3.77;;;;;;;13.50;100.00;97980.25;5075688;28;20212;-65
2021/08/27 03:16:45;;;;;;;5.33;3.90;;;;;;;13.58;100.00;97969.81;5075971;28;20205;-65
2021/08/27 03:19:19;;;;;;;5.00;4.17;;;;;;;13.55;100.00;97965.59;5075958;28;20211;-65
2021/08/27 03:21:49;;;;;;;5.50;3.60;;;;;;;13.60;100.00;97975.84;5075746;28;20282;-65
2021/08/27 03:24:21;;;;;;;6.93;3.80;;;;;;;13.59;100.00;97964.38;5075893;28;20219;-65
2021/08/27 03:26:53;;;;;;;5.53;4.33;;;;;;;13.59;100.00;97964.38;5075790;28;20580;-65
2021/08/27 03:29:22;;;;;;;6.77;5.03;;;;;;;13.61;100.00;97962.44;5073997;28;20212;-65
2021/08/27 03:31:51;;;;;;;7.07;4.00;;;;;;;13.66;100.00;97968.22;5075726;28;20209;-65
2021/08/27 03:34:18;;;;;;;8.77;4.70;;;;;;;13.69;100.00;97959.13;5075362;28;20227;-65
2021/08/27 03:36:45;;;;;;;7.00;4.57;;;;;;;13.73;100.00;97964.06;5075617;28;20216;-65
2021/08/27 03:39:12;;;;;;;6.87;4.40;;;;;;;13.79;100.00;97965.34;5075326;28;20216;-65
2021/08/27 03:41:41;;;;;;;6.97;4.60;;;;;;;13.83;100.00;97956.16;5074294;28;20233;-65
2021/08/27 03:44:08;;;;;;;6.77;4.60;;;;;;;13.86;100.00;97953.22;5075523;28;20209;-65
2021/08/27 03:46:36;;;;;;;5.57;4.03;;;;;;;13.89;100.00;97960.94;5075362;28;20299;-65
2021/08/27 03:49:05;;;;;;;5.77;4.23;;;;;;;13.89;100.00;97961.78;5075366;28;20221;-65
2021/08/27 03:51:32;;;;;;;6.37;4.90;;;;;;;13.91;100.00;97966.97;5075052;28;20214;-65
2021/08/27 03:54:00;;;;;;;10.80;5.53;;;;;;;13.94;100.00;97958.75;5073557;28;20218;-65
2021/08/27 03:56:28;;;;;;;9.70;6.13;;;;;;;13.94;100.00;97964.06;5074892;28;20217;-65
2021/08/27 03:58:56;;;;;;;7.43;5.20;;;;;;;13.92;100.00;97971.28;5075188;28;20220;-65
2021/08/27 04:01:23;;;;;;;7.53;5.90;;;;;;;13.88;100.00;97968.06;5075034;28;20254;-65
2021/08/27 04:03:49;;;;;;;7.80;6.27;;;;;;;13.81;100.00;97971.38;5075150;28;20225;-65
2021/08/27 04:06:17;;;;;;;11.17;6.30;;;;;;;13.75;100.00;97964.75;5074824;28;20581;-65
2021/08/27 04:08:44;;;;;;;10.53;6.60;;;;;;;13.72;100.00;97966.84;5074697;28;20693;-65
2021/08/27 04:11:13;;;;;;;9.20;7.13;;;;;;;13.64;100.00;97971.97;5074924;28;20244;-65
2021/08/27 04:13:40;;;;;;;11.90;8.07;;;;;;;13.62;100.00;97979.22;5074642;28;20212;-65
2021/08/27 04:16:07;;;;;;;8.63;7.03;;;;;;;13.61;100.00;97978.38;5074413;28;20699;-65
2021/08/27 04:18:33;;;;;;;10.27;7.77;;;;;;;13.61;100.00;97972.19;5074667;28;20209;-65
2021/08/27 04:21:01;;;;;;;10.63;7.23;;;;;;;13.59;100.00;97974.16;5072677;28;20721;-65
2021/08/27 04:23:29;;;;;;;8.33;7.17;;;;;;;13.60;100.00;97981.13;5074669;28;20258;-65
2021/08/27 04:25:55;;;;;;;9.37;7.10;;;;;;;13.59;100.00;97974.16;5074398;28;20216;-65
2021/08/27 04:28:22;;;;;;;9.87;7.43;;;;;;;13.60;100.00;97976.69;5074523;28;20585;-65
2021/08/27 04:30:48;;;;;;;10.20;6.80;;;;;;;13.65;100.00;97982.47;5074648;28;20217;-65
2021/08/27 04:33:15;;;;;;;8.53;6.13;;;;;;;13.64;100.00;97983.41;5074216;28;20215;-65
2021/08/27 04:35:41;;;;;;;7.17;6.00;;;;;;;13.66;100.00;97983.28;5074487;28;20237;-65
2021/08/27 04:38:08;;;;;;;8.77;6.10;;;;;;;13.64;100.00;97985.25;5073976;28;20255;-65
2021/08/27 04:40:36;;;;;;;8.60;6.40;;;;;;;13.61;100.00;97981.03;5074039;28;20214;-65
2021/08/27 04:43:02;;;;;;;10.40;6.10;;;;;;;13.60;100.00;97989.09;5073971;28;20677;-65
2021/08/27 04:45:29;;;;;;;6.90;5.73;;;;;;;13.61;100.00;97996.09;5072158;28;20300;-65
2021/08/27 04:47:55;;;;;;;7.97;6.20;;;;;;;13.68;100.00;97997.31;5074111;28;20214;-65
2021/08/27 04:50:22;;;;;;;6.97;5.90;;;;;;;13.73;100.00;98000.38;5073771;28;20217;-65
2021/08/27 04:52:48;;;;;;;7.90;6.50;;;;;;;13.72;100.00;98011.97;5073792;28;20209;-65
2021/08/27 04:55:15;;;;;;;9.60;6.97;;;;;;;13.74;100.00;98010.88;5073905;28;20213;-65
2021/08/27 04:57:42;;;;;;;7.17;6.03;;;;;;;13.69;100.00;98006.94;5073882;28;20213;-65
2021/08/27 05:00:10;;;;;;;9.07;6.37;;;;;;;13.68;100.00;98010.56;5073795;28;20211;-65
2021/08/27 05:02:37;;;;;;;8.60;6.67;;;;;;;13.68;100.00;98010.56;5073694;28;20236;-65
2021/08/27 05:05:05;;;;;;;9.30;6.80;;;;;;;13.67;100.00;98008.88;5073874;28;20219;-65
2021/08/27 05:07:31;;;;;;;9.67;6.83;;;;;;;13.69;100.00;98009.59;5073536;28;20705;-65
2021/08/27 05:09:58;;;;;;;11.63;6.63;;;;;;;13.73;100.00;98011.00;5073673;28;20208;-65
2021/08/27 05:12:24;;;;;;;9.53;7.40;;;;;;;13.70;100.00;98009.44;5071829;28;20212;-65
2021/08/27 05:14:52;;;;;;;10.07;6.63;;;;;;;13.64;100.00;98014.44;5073696;28;20221;-65
2021/08/27 05:17:18;;;;;;;8.47;7.00;;;;;;;13.64;100.00;98014.44;5073352;28;20215;-65
2021/08/27 05:19:45;;;;;;;9.77;7.50;;;;;;;13.65;100.00;98016.13;5073467;28;20550;-65
2021/08/27 05:22:12;;;;;;;10.40;7.53;;;;;;;13.65;100.00;98026.75;5073515;28;20233;-65
2021/08/27 05:24:38;;;;;;;10.03;8.00;;;;;;;13.68;100.00;98026.50;5073554;28;20229;-65
2021/08/27 05:27:05;;;;;;;10.40;8.20;;;;;;;13.63;100.00;98029.53;5073371;28;20563;-65
2021/08/27 05:29:31;;;;;;;9.20;7.87;;;;;;;13.60;100.00;98029.78;5073436;28;20211;-65
2021/08/27 05:31:59;;;;;;;9.43;7.77;;;;;;;13.69;100.00;98033.50;5073387;28;20554;-64
2021/08/27 05:34:26;;;;;;;13.20;8.20;;;;;;;14.00;100.00;98024.66;5073346;28;20236;-65
2021/08/27 05:36:52;;;;;;;12.13;9.00;;;;;;;14.07;100.00;98031.97;5073232;28;20213;-65
2021/08/27 05:39:19;;;;;;;11.00;8.77;;;;;;;14.09;100.00;98035.34;5071291;28;20686;-65
2021/08/27 05:41:46;;;;;;;9.97;8.53;;;;;;;13.97;100.00;98043.50;5073185;28;20328;-65
2021/08/27 05:44:12;;;;;;;12.33;9.20;;;;;;;13.87;100.00;98050.56;5072928;28;20208;-65
2021/08/27 05:46:39;;;;;;;10.17;8.87;;;;;;;13.80;100.00;98049.38;5072818;28;20787;-65
2021/08/27 05:49:07;;;;;;;11.57;8.50;;;;;;;13.94;100.00;98054.41;5073170;28;20214;-65
2021/08/27 05:51:33;;;;;;;10.30;7.77;;;;;;;13.96;100.00;98058.59;5073148;28;20223;-65
2021/08/27 05:54:00;;;;;;;13.03;8.13;;;;;;;14.01;100.00;98058.22;5073323;28;20214;-65
2021/08/27 05:56:26;;;;;;;9.63;7.90;;;;;;;14.14;100.00;98072.16;5073148;28;20212;-65
2021/08/27 05:58:52;;;;;;;9.77;7.67;;;;;;;14.22;100.00;98059.09;5073200;28;20277;-65
2021/08/27 06:01:19;;;;;;;10.27;8.20;;;;;;;14.32;100.00;98062.66;5072977;28;20208;-65
2021/08/27 06:03:46;;;;;;;9.10;7.13;;;;;;;14.30;100.00;98061.94;5072567;28;20212;-65
2021/08/27 06:06:13;;;;;;;10.57;8.03;;;;;;;14.34;100.00;98060.69;5079522;28;20208;-65
2021/08/27 06:08:40;;;;;;;8.63;7.07;;;;;;;14.22;100.00;98064.41;5079771;28;20213;-65
2021/08/27 06:11:06;;;;;;;7.90;6.77;;;;;;;14.28;100.00;98069.19;5079655;28;20208;-65
2021/08/27 06:13:33;;;;;;;8.47;7.03;;;;;;;14.55;100.00;98066.84;5079389;28;20204;-65
2021/08/27 06:16:00;;;;;;;9.87;6.40;;;;;;;15.03;100.00;98065.25;5079313;28;20205;-64
2021/08/27 06:18:26;;;;;;;9.80;6.67;;;;;;;15.06;100.00;98070.28;5079326;28;20209;-64
2021/08/27 06:20:52;;;;;;;8.20;6.47;;;;;;;14.80;100.00;98071.72;5079248;28;20223;-65
2021/08/27 06:23:21;;;;;;;7.70;6.70;;;;;;;14.54;100.00;98065.16;5079242;28;20228;-63
2021/08/27 06:25:47;;;;;;;9.03;6.57;;;;;;;14.37;100.00;98071.09;5079445;28;20216;-64
2021/08/27 06:28:14;;;;;;;7.93;7.13;;;;;;;14.28;100.00;98058.56;5079240;28;20211;-64
2021/08/27 06:30:40;;;;;;;6.80;6.13;;;;;;;14.33;100.00;98072.31;5077818;28;20208;-64
2021/08/27 06:33:07;;;;;;;7.53;6.20;;;;;;;14.33;100.00;98077.63;5079154;28;20214;-64
2021/08/27 06:35:34;;;;;;;9.13;6.30;;;;;;;14.25;100.00;98082.75;5079511;28;20230;-64
2021/08/27 06:40:48;;;;;;;6.23;5.63;;;;;;;14.30;100.00;98072.59;5079153;28;20255;-64
2021/08/27 06:43:14;;;;;;;7.07;5.93;;;;;;;14.43;100.00;98084.69;5079177;28;20236;-64
2021/08/27 06:45:41;;;;;;;9.00;6.47;;;;;;;14.60;100.00;98083.25;5079321;28;20212;-64
2021/08/27 06:48:08;;;;;;;7.20;6.20;;;;;;;14.95;100.00;98081.03;5079065;28;20215;-64
2021/08/27 06:50:38;;;;;;;9.07;5.47;;;;;;;15.32;100.00;98079.47;5079312;28;20212;-63
2021/08/27 06:53:04;;;;;;;7.13;5.07;;;;;;;15.68;100.00;98081.53;5079225;28;20258;-64
2021/08/27 06:55:31;;;;;;;5.03;4.50;;;;;;;15.87;97.92;98081.53;5077117;28;20225;-64
2021/08/27 06:58:00;;;;;;;5.27;4.40;;;;;;;15.76;96.50;98089.69;5079369;28;20218;-64
2021/08/27 07:00:27;;;;;;;5.63;4.23;;;;;;;15.74;97.13;98088.97;5079248;28;20224;-64
2021/08/27 07:02:53;;;;;;;5.73;4.37;;;;;;;15.53;97.93;98094.41;5079208;28;20249;-64
2021/08/27 07:05:20;;;;;;;6.30;3.80;;;;;;;15.50;98.10;98096.50;5078967;28;20713;-63
2021/08/27 07:07:46;;;;;;;6.73;4.30;;;;;;;15.71;96.26;98102.59;5076804;28;20222;-64
2021/08/27 07:10:14;;;;;;;4.57;3.70;;;;;;;15.75;94.42;98098.63;5076505;28;20209;-64
2021/08/27 07:12:41;;;;;;;5.07;3.80;;;;;;;15.63;94.17;98094.44;5070982;28;20207;-64
2021/08/27 07:15:09;;;;;;;4.23;3.63;;;;;;;15.42;95.01;98097.22;5057272;28;20226;-65
2021/08/27 07:17:36;;;;;;;4.20;2.97;;;;;;;15.34;94.92;98091.69;5055587;28;20681;-66
2021/08/27 07:20:04;;;;;;;4.57;3.20;;;;;;;15.27;94.41;98087.88;5055916;28;20221;-66
2021/08/27 07:22:30;;;;;;;3.33;2.90;;;;;;;15.44;96.17;98091.72;5053917;28;20241;-64
2021/08/27 07:24:57;;;;;;;3.40;2.90;;;;;;;15.57;95.06;98097.66;5055846;28;20599;-64
2021/08/27 07:27:23;;;;;;;3.37;2.83;;;;;;;15.86;93.23;98101.19;5055650;28;20218;-65
2021/08/27 07:29:50;;;;;;;3.17;2.80;;;;;;;15.89;89.96;98090.25;5071717;28;20671;-64
2021/08/27 07:32:18;;;;;;;4.87;3.10;;;;;;;15.83;90.23;98102.28;5075644;28;20215;-66
2021/08/27 07:34:44;;;;;;;5.97;2.60;;;;;;;15.97;89.57;98098.38;5075382;28;20234;-64
2021/08/27 07:37:11;;;;;;;3.17;2.67;;;;;;;16.35;88.76;98105.38;5075558;28;20222;-64
2021/08/27 07:39:39;;;;;;;3.47;2.60;;;;;;;16.73;84.68;98100.00;5075239;28;20211;-64
2021/08/27 07:42:08;;;;;;;4.03;2.40;;;;;;;17.08;82.10;98102.00;5075227;28;20261;-64
2021/08/27 07:44:34;;;;;;;2.97;2.10;;;;;;;17.18;79.21;98111.63;5075458;28;20217;-64
2021/08/27 07:47:01;;;;;;;4.93;2.30;;;;;;;17.05;77.93;98104.94;5075099;28;20674;-64
2021/08/27 07:49:29;;;;;;;2.77;2.03;;;;;;;16.77;80.30;98112.06;5073345;28;20684;-64
2021/08/27 07:51:57;;;;;;;3.97;3.00;;;;;;;16.71;82.91;98112.63;5075403;28;20208;-64
2021/08/27 07:54:24;;;;;;;7.00;3.30;;;;;;;16.72;84.74;98117.03;5074989;28;20218;-64
2021/08/27 07:56:51;;;;;;;4.67;2.60;;;;;;;16.84;83.94;98118.53;5075194;28;20211;-65
2021/08/27 07:59:17;;;;;;;3.47;2.63;;;;;;;17.19;82.39;98113.31;5075218;28;20572;-64
2021/08/27 08:01:44;;;;;;;4.50;2.93;;;;;;;17.61;79.21;98111.03;5074823;28;20214;-65
2021/08/27 08:04:10;;;;;;;4.37;2.57;;;;;;;17.68;78.06;98120.97;5075022;28;20203;-65
2021/08/27 08:06:38;;;;;;;3.97;2.23;;;;;;;17.69;77.49;98117.28;5074985;28;20223;-64
2021/08/27 08:09:06;;;;;;;4.70;2.67;;;;;;;17.46;77.35;98116.03;5074865;28;20219;-64
2021/08/27 08:11:32;;;;;;;3.53;2.50;;;;;;;17.28;78.80;98120.47;5074877;28;20223;-64
2021/08/27 08:13:59;;;;;;;2.87;1.77;;;;;;;17.03;74.21;98115.78;5073160;28;20218;-63
2021/08/27 08:16:26;;;;;;;1.87;1.60;;;;;;;16.76;76.15;98120.25;5074683;28;20215;-64
2021/08/27 08:18:52;;;;;;;3.50;2.40;;;;;;;16.73;78.44;98121.38;5074727;28;20214;-64
2021/08/27 08:21:22;;;;;;;3.43;2.03;;;;;;;17.14;79.53;98120.09;5074699;28;20207;-64
2021/08/27 08:23:51;;;;;;;3.50;1.93;;;;;;;17.65;77.55;98120.41;5074331;28;20238;-64
2021/08/27 08:26:19;;;;;;;1.97;1.53;;;;;;;17.68;72.56;98114.78;5074483;28;20215;-64
2021/08/27 08:28:46;;;;;;;3.47;1.97;;;;;;;17.31;73.06;98122.00;5073936;28;20222;-64
2021/08/27 08:31:17;;;;;;;2.53;1.60;;;;;;;17.04;74.95;98130.81;5074302;28;20211;-64
2021/08/27 08:33:43;;;;;;;2.03;1.70;;;;;;;17.03;76.14;98123.81;5074293;28;20683;-65
2021/08/27 08:36:10;;;;;;;3.03;1.87;;;;;;;17.50;76.78;98120.09;5074489;28;20207;-65
2021/08/27 08:38:36;;;;;;;2.37;2.00;;;;;;;17.78;74.29;98127.09;5074406;28;20212;-64
2021/08/27 08:41:05;;;;;;;4.47;2.00;;;;;;;17.59;73.98;98129.91;5072507;28;20208;-65
2021/08/27 08:43:32;;;;;;;2.30;1.87;;;;;;;17.16;74.41;98128.81;5074336;28;20247;-64
2021/08/27 08:45:59;;;;;;;4.07;2.17;;;;;;;16.79;76.84;98131.47;5074208;28;20210;-64
2021/08/27 08:48:26;;;;;;;4.63;2.10;;;;;;;16.78;77.95;98135.13;5074236;28;20216;-64
2021/08/27 08:50:54;;;;;;;3.80;2.33;;;;;;;17.36;76.09;98133.06;5074158;28;20212;-64
2021/08/27 08:53:23;;;;;;;3.30;1.83;;;;;;;17.80;73.68;98133.13;5074108;28;20257;-64
2021/08/27 08:55:51;;;;;;;3.03;1.70;;;;;;;18.03;70.40;98147.75;5073707;28;20681;-64
2021/08/27 08:58:19;;;;;;;3.83;1.50;;;;;;;17.80;70.85;98141.16;5073947;28;20212;-64
2021/08/27 09:00:46;;;;;;;3.43;1.67;;;;;;;17.60;71.87;98133.38;5074014;28;20218;-65
2021/08/27 09:03:13;;;;;;;3.03;1.80;;;;;;;17.49;71.76;98139.78;5073935;28;20238;-64
2021/08/27 09:05:40;;;;;;;3.23;1.40;;;;;;;17.59;72.85;98143.25;5071691;28;20214;-65
2021/08/27 09:08:07;;;;;;;2.33;1.27;;;;;;;17.79;70.55;98144.81;5073886;28;20215;-65
2021/08/27 09:10:41;;;;;;;2.60;1.87;;;;;;;17.75;69.77;98143.44;5073715;28;20280;-64
2021/08/27 09:13:08;;;;;;;1.93;1.53;;;;;;;17.51;70.66;98140.50;5073685;28;20215;-64
2021/08/27 09:15:36;;;;;;;2.97;1.50;;;;;;;17.25;72.21;98144.78;5073759;28;20220;-65
2021/08/27 09:18:06;;;;;;;2.83;1.70;;;;;;;17.18;72.38;98142.88;5073061;28;20224;-65
2021/08/27 09:20:32;;;;;;;1.63;1.50;;;;;;;17.30;72.55;98139.00;5073314;28;20715;-64
2021/08/27 09:23:00;;;;;;;3.10;1.40;;;;;;;17.76;69.66;98134.44;5073474;28;20607;-64
2021/08/27 09:25:28;;;;;;;4.17;1.50;;;;;;;18.17;67.68;98130.34;5073163;28;20673;-64
2021/08/27 09:28:09;;;;;;;3.17;1.50;;;;;;;18.37;67.95;98135.41;5073391;28;20208;-63
2021/08/27 09:30:40;;;;;;;3.10;1.50;;;;;;;18.41;65.37;98147.47;5073460;28;20208;-64
2021/08/27 09:33:13;;;;;;;3.17;1.30;;;;;;;18.28;65.17;98149.66;5071677;28;20212;-64
2021/08/27 09:35:40;;;;;;;3.13;1.30;;;;;;;18.15;66.59;98134.97;5073432;28;20243;-64
2021/08/27 09:38:16;;;;;;;3.00;1.57;;;;;;;17.96;67.56;98141.34;5073103;28;20207;-64
2021/08/27 09:40:48;;;;;;;1.33;1.23;;;;;;;17.94;66.62;98147.81;5072636;28;20588;-64
2021/08/27 09:43:25;;;;;;;2.03;1.50;;;;;;;18.02;67.38;98146.06;5073350;28;20234;-64
2021/08/27 09:45:53;;;;;;;3.10;1.73;;;;;;;18.08;69.00;98137.44;5073155;28;20210;-65
2021/08/27 09:48:19;;;;;;;3.60;1.70;;;;;;;18.23;68.25;98132.41;5073385;28;20204;-65
2021/08/27 09:50:49;;;;;;;3.90;1.47;;;;;;;18.36;66.68;98141.72;5073208;28;20581;-64
2021/08/27 09:53:17;;;;;;;5.00;1.80;;;;;;;18.20;67.27;98138.91;5073078;28;20214;-64
2021/08/27 09:55:54;;;;;;;3.20;2.10;;;;;;;18.05;67.33;98137.72;5073117;28;20208;-65
2021/08/27 09:58:20;;;;;;;2.53;1.30;;;;;;;18.07;67.81;98132.25;5071400;28;20207;-64
2021/08/27 10:01:02;;;;;;;4.40;1.83;;;;;;;18.10;66.30;98143.47;5072837;28;20211;-63
2021/08/27 10:03:28;;;;;;;5.07;1.80;;;;;;;18.28;66.13;98138.13;5072628;28;20705;-64
2021/08/27 10:05:55;;;;;;;3.83;1.67;;;;;;;18.47;66.22;98133.47;5073034;28;20297;-65
2021/08/27 10:08:23;;;;;;;2.37;1.60;;;;;;;18.87;65.51;98144.50;5072975;28;20208;-65
2021/08/27 10:10:53;;;;;;;2.83;1.50;;;;;;;19.00;61.26;98136.88;5073010;28;20215;-64
2021/08/27 10:13:20;;;;;;;2.73;1.73;;;;;;;19.11;60.22;98136.63;5073062;28;20238;-64
2021/08/27 10:15:47;;;;;;;3.93;1.67;;;;;;;19.10;61.59;98132.25;5073069;28;20208;-64
2021/08/27 10:18:15;;;;;;;3.13;1.70;;;;;;;19.12;58.49;98142.78;5072987;28;20226;-64
2021/08/27 10:20:44;;;;;;;2.07;1.73;;;;;;;19.03;60.80;98133.88;5073036;28;20211;-64
2021/08/27 10:23:12;;;;;;;2.13;1.80;;;;;;;19.12;61.23;98127.56;5072913;28;20235;-64
2021/08/27 10:25:41;;;;;;;3.87;2.30;;;;;;;19.59;61.12;98125.31;5071232;28;20214;-64
2021/08/27 10:28:09;;;;;;;2.53;1.70;;;;;;;19.91;57.56;98128.94;5072770;28;20223;-64
2021/08/27 10:30:57;;;;;;;3.53;1.77;;;;;;;19.99;56.53;98134.31;5072899;28;20314;-64
2021/08/27 10:33:57;;;;;;;2.10;1.83;;;;;;;19.89;54.71;98128.28;5072793;28;20231;-64
2021/08/27 10:36:40;;;;;;;3.17;1.60;;;;;;;19.87;56.26;98127.56;5069860;28;20211;-64
2021/08/27 10:39:08;;;;;;;2.37;1.80;;;;;;;19.69;57.69;98126.84;5072799;28;20239;-64
2021/08/27 10:41:40;;;;;;;2.40;1.90;;;;;;;19.47;57.80;98126.59;5072807;28;20218;-64
2021/08/27 10:44:07;;;;;;;4.23;2.53;;;;;;;19.26;59.84;98129.69;5072539;28;20261;-65
2021/08/27 10:47:08;;;;;;;3.87;2.30;;;;;;;19.15;61.42;98127.25;5072675;28;20219;-64
2021/08/27 10:49:54;;;;;;;2.30;2.10;;;;;;;19.15;62.22;98123.75;5071992;28;20215;-65
2021/08/27 10:52:27;;;;;;;3.13;2.50;;;;;;;19.00;62.39;98128.00;5073867;28;20211;-65
2021/08/27 10:55:20;;;;;;;2.63;2.17;;;;;;;18.55;64.10;98136.25;5075508;28;20668;-65
2021/08/27 10:57:55;;;;;;;3.60;2.97;;;;;;;18.10;66.58;98131.94;5039698;28;20211;-64
2021/08/27 11:00:40;;;;;;;5.47;3.07;;;;;;;17.69;68.30;98137.84;5075709;28;20210;-65
2021/08/27 11:03:08;;;;;;;4.87;2.63;;;;;;;17.51;69.78;98128.97;5075478;28;20636;-64
2021/08/27 11:05:43;;;;;;;3.03;2.73;;;;;;;17.50;70.19;98130.78;5075530;28;20227;-63
2021/08/27 11:08:13;;;;;;;4.67;2.80;;;;;;;17.60;69.25;98130.72;5074679;28;20301;-64
2021/08/27 11:10:42;;;;;;;4.20;2.40;;;;;;;17.72;69.37;98132.19;5067073;28;20212;-64
2021/08/27 11:13:14;;;;;;;4.67;2.27;;;;;;;17.95;68.38;98134.31;5067611;28;20215;-64
2021/08/27 11:15:42;;;;;;;3.27;2.00;;;;;;;18.18;67.49;98132.88;5058787;28;20220;-64
2021/08/27 11:18:13;;;;;;;3.67;2.40;;;;;;;18.31;65.74;98136.03;5068404;28;20676;-63
2021/08/27 11:20:40;;;;;;;2.57;2.37;;;;;;;18.31;66.04;98144.06;5065160;28;20216;-64
2021/08/27 11:23:07;;;;;;;3.03;2.27;;;;;;;18.32;66.66;98132.34;5061164;28;20242;-64
2021/08/27 11:25:35;;;;;;;3.33;2.30;;;;;;;18.40;66.82;98135.09;5071368;28;20234;-64
2021/08/27 11:28:26;;;;;;;2.73;2.43;;;;;;;18.91;65.09;98124.41;5060421;28;20584;-64
2021/08/27 11:31:05;;;;;;;3.80;2.53;;;;;;;19.53;61.20;98125.97;5074793;28;20216;-65
2021/08/27 11:33:52;;;;;;;4.90;2.53;;;;;;;19.93;59.68;98126.09;5058170;28;20218;-64
2021/08/27 11:36:21;;;;;;;3.03;2.67;;;;;;;19.88;57.65;98118.53;5065613;28;20211;-64